Time;durP1;ratioP1;P1;durP2;ratioP2;P2;SDS_P1;SDS_P2;PMS_P1;PMS_P2;Temp;Humidity;BMP_temperature;BMP_pressure;BME280_temperature;BME280_humidity;BME280_pressure;Samples;Min_cycle;Max_cycle;Signal;HPM_P1;HPM_P2
2023/08/14 00:00:03;;;;;;;15.65;6.97;;;22.90;90.30;;;;;;5006257;28;20132;-65
2023/08/14 00:02:29;;;;;;;8.40;6.65;;;22.90;90.30;;;;;;5010647;28;20037;-65
2023/08/14 00:04:54;;;;;;;16.52;6.30;;;22.90;90.20;;;;;;5006587;28;20044;-65
2023/08/14 00:07:20;;;;;;;8.52;6.68;;;22.90;90.10;;;;;;5004365;28;20092;-65
2023/08/14 00:09:45;;;;;;;72.82;6.78;;;22.90;90.20;;;;;;5014285;28;20096;-67
2023/08/14 00:12:11;;;;;;;28.05;5.97;;;22.90;90.10;;;;;;5008526;28;20084;-65
2023/08/14 00:14:37;;;;;;;7.53;6.07;;;22.90;90.10;;;;;;5010721;28;20198;-64
2023/08/14 00:17:02;;;;;;;46.63;6.28;;;22.90;90.10;;;;;;5012684;28;20052;-65
2023/08/14 00:19:28;;;;;;;38.28;5.47;;;22.90;90.10;;;;;;5011869;28;20045;-65
2023/08/14 00:21:53;;;;;;;24.58;5.53;;;22.90;90.00;;;;;;5009402;28;20038;-64
2023/08/14 00:24:19;;;;;;;15.48;6.43;;;22.80;90.00;;;;;;5015070;28;20058;-65
2023/08/14 00:26:44;;;;;;;11.15;6.15;;;22.80;90.10;;;;;;5014077;28;20034;-65
2023/08/14 00:29:10;;;;;;;18.33;5.68;;;22.70;90.10;;;;;;5007960;28;20038;-65
2023/08/14 00:31:36;;;;;;;18.38;6.15;;;22.70;90.10;;;;;;5007089;28;20100;-65
2023/08/14 00:34:01;;;;;;;10.95;5.55;;;22.70;90.10;;;;;;5008390;28;20030;-64
2023/08/14 00:36:27;;;;;;;6.28;5.68;;;22.70;90.10;;;;;;5008893;28;20663;-65
2023/08/14 00:38:52;;;;;;;9.65;5.68;;;22.70;90.20;;;;;;5008673;28;20049;-65
2023/08/14 00:41:18;;;;;;;15.38;6.22;;;22.70;90.20;;;;;;5005469;28;20041;-65
2023/08/14 00:43:43;;;;;;;6.05;5.55;;;22.70;90.00;;;;;;4995292;28;20041;-65
2023/08/14 00:46:09;;;;;;;7.25;5.85;;;22.60;90.00;;;;;;5011804;28;20128;-65
2023/08/14 00:48:35;;;;;;;5.97;5.50;;;22.60;90.10;;;;;;5010727;28;20577;-65
2023/08/14 00:51:02;;;;;;;5.78;5.38;;;22.60;90.10;;;;;;5012568;28;20057;-65
2023/08/14 00:53:29;;;;;;;6.10;5.60;;;22.60;90.20;;;;;;5009976;28;20121;-66
2023/08/14 00:55:55;;;;;;;6.05;5.57;;;22.60;90.20;;;;;;5008504;28;20501;-64
2023/08/14 00:58:24;;;;;;;5.45;5.05;;;22.60;90.20;;;;;;5008633;28;21683;-65
2023/08/14 01:00:50;;;;;;;5.55;5.15;;;22.60;90.40;;;;;;5003665;28;20095;-65
2023/08/14 01:03:17;;;;;;;5.70;5.30;;;22.60;90.20;;;;;;5007428;28;20116;-65
2023/08/14 01:05:44;;;;;;;5.45;5.05;;;22.50;90.20;;;;;;5008237;28;20803;-65
2023/08/14 01:08:09;;;;;;;5.07;4.53;;;22.50;90.30;;;;;;5005418;28;20401;-65
2023/08/14 01:10:54;;;;;;;4.93;4.53;;;22.50;90.50;;;;;;5004979;28;20038;-65
2023/08/14 01:13:49;;;;;;;4.72;4.43;;;22.40;91.10;;;;;;5011945;28;20045;-65
2023/08/14 01:16:22;;;;;;;5.45;5.05;;;22.40;91.00;;;;;;5012051;28;20443;-65
2023/08/14 01:18:51;;;;;;;5.68;5.18;;;22.40;90.80;;;;;;5009316;28;20501;-65
2023/08/14 01:21:16;;;;;;;5.28;4.88;;;22.40;90.80;;;;;;5010114;28;20091;-65
2023/08/14 01:24:06;;;;;;;6.00;5.40;;;22.40;90.90;;;;;;5013312;28;20286;-64
2023/08/14 01:26:33;;;;;;;6.03;5.53;;;22.40;91.20;;;;;;5012380;28;20505;-65
2023/08/14 01:28:59;;;;;;;9.73;5.78;;;22.40;90.90;;;;;;5010587;28;20130;-66
2023/08/14 01:31:24;;;;;;;5.80;5.40;;;22.30;90.90;;;;;;4991212;28;20063;-65
2023/08/14 01:33:50;;;;;;;9.15;6.15;;;22.20;90.90;;;;;;5013677;28;20042;-64
2023/08/14 01:36:23;;;;;;;7.18;5.88;;;22.20;91.00;;;;;;5012553;28;20730;-64
2023/08/14 01:39:07;;;;;;;6.22;5.82;;;22.20;91.10;;;;;;5009088;28;20220;-65
2023/08/14 01:41:36;;;;;;;6.22;5.80;;;22.20;91.40;;;;;;5006210;28;20104;-65
2023/08/14 01:44:05;;;;;;;13.55;6.93;;;22.10;91.30;;;;;;5015139;28;20030;-65
2023/08/14 01:46:32;;;;;;;8.38;6.72;;;22.10;91.20;;;;;;5014702;28;20358;-64
2023/08/14 01:49:01;;;;;;;10.18;6.47;;;22.10;91.30;;;;;;5012689;28;20034;-65
2023/08/14 01:51:28;;;;;;;7.15;6.50;;;22.10;91.40;;;;;;5012412;28;20482;-64
2023/08/14 01:53:53;;;;;;;7.07;6.57;;;22.00;91.40;;;;;;5015924;28;20040;-64
2023/08/14 01:56:19;;;;;;;6.88;6.28;;;22.00;91.40;;;;;;5015745;28;20034;-64
2023/08/14 01:58:44;;;;;;;7.57;6.97;;;22.00;91.50;;;;;;5008685;28;20519;-64
2023/08/14 02:01:10;;;;;;;8.00;7.30;;;22.00;91.50;;;;;;5007912;28;20112;-65
2023/08/14 02:03:35;;;;;;;7.90;7.20;;;22.00;91.50;;;;;;5013446;28;20045;-64
2023/08/14 02:06:01;;;;;;;8.13;6.47;;;22.00;91.50;;;;;;5009631;28;20264;-65
2023/08/14 02:08:26;;;;;;;10.55;6.88;;;22.00;91.50;;;;;;5008284;28;20044;-65
2023/08/14 02:10:52;;;;;;;11.27;7.00;;;22.00;91.50;;;;;;5006844;28;20041;-64
2023/08/14 02:13:17;;;;;;;7.70;6.88;;;22.10;91.60;;;;;;5013213;28;20044;-64
2023/08/14 02:15:46;;;;;;;7.05;6.13;;;22.10;91.50;;;;;;5007634;28;20413;-64
2023/08/14 02:18:13;;;;;;;6.78;6.28;;;22.10;91.60;;;;;;5010637;28;20033;-64
2023/08/14 02:20:49;;;;;;;7.20;6.57;;;22.10;91.50;;;;;;5010128;28;20041;-64
2023/08/14 02:23:14;;;;;;;6.82;6.32;;;22.20;91.60;;;;;;5013112;28;20029;-64
2023/08/14 02:25:43;;;;;;;7.00;6.40;;;22.20;91.30;;;;;;5010848;28;20037;-64
2023/08/14 02:28:09;;;;;;;7.25;6.55;;;22.20;91.30;;;;;;5009669;28;20053;-64
2023/08/14 02:30:37;;;;;;;14.60;6.43;;;22.20;91.30;;;;;;5010018;28;20068;-64
2023/08/14 02:33:03;;;;;;;39.10;7.07;;;22.10;91.30;;;;;;5015117;28;20034;-65
2023/08/14 02:35:28;;;;;;;61.58;7.85;;;22.10;91.40;;;;;;5015068;28;20041;-64
2023/08/14 02:37:54;;;;;;;48.13;7.90;;;22.10;91.50;;;;;;4994949;28;20091;-65
2023/08/14 02:40:19;;;;;;;36.50;6.88;;;22.00;91.60;;;;;;5012317;28;20339;-65
2023/08/14 02:42:45;;;;;;;7.45;6.75;;;22.00;91.70;;;;;;5014066;28;20060;-65
2023/08/14 02:45:11;;;;;;;6.93;6.32;;;21.90;91.80;;;;;;5013843;28;20046;-65
2023/08/14 02:47:38;;;;;;;7.85;7.05;;;21.90;91.90;;;;;;5016753;28;20410;-64
2023/08/14 02:50:04;;;;;;;9.40;7.13;;;21.90;92.00;;;;;;5015044;28;20056;-64
2023/08/14 02:52:29;;;;;;;10.10;7.13;;;22.00;92.00;;;;;;4998938;28;20112;-65
2023/08/14 02:54:55;;;;;;;7.53;6.93;;;22.00;92.00;;;;;;5009827;28;20037;-64
2023/08/14 02:57:20;;;;;;;13.90;7.78;;;22.00;92.00;;;;;;5012218;28;20095;-64
2023/08/14 02:59:46;;;;;;;8.38;7.57;;;22.10;92.00;;;;;;5010734;28;20030;-65
2023/08/14 03:02:11;;;;;;;9.27;7.07;;;22.00;91.90;;;;;;5009195;28;20087;-64
2023/08/14 03:04:37;;;;;;;7.18;6.50;;;22.10;91.90;;;;;;5007058;28;20713;-64
2023/08/14 03:07:03;;;;;;;8.15;7.05;;;22.10;91.90;;;;;;5006780;28;20560;-65
2023/08/14 03:09:29;;;;;;;7.82;7.13;;;22.10;91.90;;;;;;5007281;28;20314;-65
2023/08/14 03:11:54;;;;;;;7.38;6.78;;;22.10;91.90;;;;;;5008542;28;20120;-64
2023/08/14 03:14:20;;;;;;;7.45;6.85;;;22.10;91.80;;;;;;5007436;28;20209;-65
2023/08/14 03:16:45;;;;;;;7.10;6.50;;;22.10;91.80;;;;;;5007352;28;20120;-63
2023/08/14 03:19:11;;;;;;;7.20;6.60;;;22.10;91.70;;;;;;5010529;28;20397;-64
2023/08/14 03:21:37;;;;;;;6.32;5.82;;;22.10;91.70;;;;;;5012645;28;20037;-65
2023/08/14 03:24:03;;;;;;;6.65;6.10;;;22.20;91.70;;;;;;5008685;28;20045;-65
2023/08/14 03:26:28;;;;;;;6.65;6.00;;;22.20;91.60;;;;;;5011623;28;20034;-65
2023/08/14 03:28:54;;;;;;;6.85;6.30;;;22.20;91.50;;;;;;5011968;28;20081;-65
2023/08/14 03:31:19;;;;;;;6.53;6.03;;;22.20;91.50;;;;;;5012205;28;20592;-65
2023/08/14 03:33:45;;;;;;;21.65;10.75;;;22.20;91.50;;;;;;5009956;28;20421;-64
2023/08/14 03:36:10;;;;;;;25.17;12.60;;;22.10;91.40;;;;;;5009598;28;20534;-65
2023/08/14 03:38:36;;;;;;;49.50;17.25;;;22.20;91.50;;;;;;5011621;28;20031;-64
2023/08/14 03:41:02;;;;;;;39.90;16.67;;;22.20;91.40;;;;;;5008839;28;20053;-64
2023/08/14 03:43:28;;;;;;;31.83;12.85;;;22.20;91.40;;;;;;5012723;28;20084;-64
2023/08/14 03:45:53;;;;;;;14.10;8.60;;;22.10;91.30;;;;;;5011623;28;20512;-65
2023/08/14 03:48:19;;;;;;;15.02;8.38;;;22.20;91.30;;;;;;5007880;28;20663;-64
2023/08/14 03:50:46;;;;;;;9.57;6.70;;;22.20;91.30;;;;;;5011179;28;20032;-64
2023/08/14 03:53:12;;;;;;;8.27;6.28;;;22.20;91.20;;;;;;5008708;28;20032;-64
2023/08/14 03:55:37;;;;;;;5.78;5.28;;;22.20;91.20;;;;;;5010054;28;20405;-64
2023/08/14 03:58:03;;;;;;;5.97;5.38;;;22.20;91.10;;;;;;5010600;28;20119;-64
2023/08/14 04:00:30;;;;;;;6.43;5.60;;;22.20;91.00;;;;;;5012271;28;20140;-65
2023/08/14 04:02:55;;;;;;;6.00;5.50;;;22.20;91.00;;;;;;5013199;28;20125;-64
2023/08/14 04:05:21;;;;;;;5.70;5.20;;;22.20;90.90;;;;;;5014985;28;20049;-64
2023/08/14 04:07:47;;;;;;;5.65;5.20;;;22.20;90.90;;;;;;5015331;28;20041;-64
2023/08/14 04:10:12;;;;;;;6.00;5.40;;;22.20;90.80;;;;;;5012452;28;20527;-65
2023/08/14 04:12:38;;;;;;;8.45;5.50;;;22.20;90.80;;;;;;5004571;28;20087;-65
2023/08/14 04:15:15;;;;;;;5.13;4.65;;;22.20;90.70;;;;;;5004127;28;20042;-64
2023/08/14 04:17:40;;;;;;;5.97;5.47;;;22.20;90.80;;;;;;5012089;28;20068;-65
2023/08/14 04:20:07;;;;;;;6.18;5.65;;;22.20;90.80;;;;;;5005066;28;20145;-64
2023/08/14 04:22:32;;;;;;;5.85;5.45;;;22.20;90.70;;;;;;5006791;28;20141;-64
2023/08/14 04:24:58;;;;;;;6.13;5.57;;;22.10;90.70;;;;;;5005399;28;20608;-64
2023/08/14 04:27:23;;;;;;;6.00;5.50;;;22.10;90.70;;;;;;5005385;28;20555;-65
2023/08/14 04:29:49;;;;;;;5.78;5.15;;;22.10;90.80;;;;;;5004693;28;20030;-64
2023/08/14 04:32:14;;;;;;;5.93;5.18;;;22.10;90.80;;;;;;5008143;28;20037;-64
2023/08/14 04:34:40;;;;;;;5.68;5.18;;;22.00;90.80;;;;;;5007917;28;20120;-64
2023/08/14 04:37:06;;;;;;;5.50;5.00;;;22.00;90.80;;;;;;5006477;28;20505;-64
2023/08/14 04:39:31;;;;;;;5.50;5.03;;;21.90;90.80;;;;;;5006177;28;20062;-64
2023/08/14 04:41:57;;;;;;;5.95;5.32;;;21.90;90.90;;;;;;5004895;28;20038;-65
2023/08/14 04:44:22;;;;;;;5.90;5.30;;;21.90;91.00;;;;;;5010687;28;20034;-65
2023/08/14 04:46:50;;;;;;;6.32;5.53;;;21.90;91.00;;;;;;5012812;28;20390;-64
2023/08/14 04:49:16;;;;;;;6.43;5.82;;;21.90;91.50;;;;;;5012570;28;20612;-64
2023/08/14 04:51:41;;;;;;;5.93;5.32;;;21.90;91.10;;;;;;5012840;28;20133;-65
2023/08/14 04:54:07;;;;;;;9.50;5.70;;;21.90;91.10;;;;;;5015909;28;20677;-64
2023/08/14 04:56:32;;;;;;;7.10;5.53;;;21.90;91.20;;;;;;5012188;28;20301;-65
2023/08/14 04:58:58;;;;;;;8.27;5.70;;;21.90;91.10;;;;;;5013644;28;20634;-64
2023/08/14 05:01:24;;;;;;;6.90;5.53;;;21.90;91.00;;;;;;5012541;28;20139;-64
2023/08/14 05:03:49;;;;;;;7.45;5.15;;;21.90;91.00;;;;;;5012202;28;20041;-64
2023/08/14 05:06:15;;;;;;;5.80;5.20;;;21.90;91.00;;;;;;5012940;28;20400;-64
2023/08/14 05:08:40;;;;;;;7.32;5.22;;;21.90;91.10;;;;;;5009747;28;20058;-64
2023/08/14 05:11:06;;;;;;;5.70;5.18;;;21.80;91.10;;;;;;5009236;28;20035;-64
2023/08/14 05:13:32;;;;;;;6.18;5.57;;;21.90;91.20;;;;;;5013701;28;20132;-64
2023/08/14 05:15:57;;;;;;;5.10;4.60;;;21.90;91.20;;;;;;5009329;28;20026;-64
2023/08/14 05:18:23;;;;;;;5.78;5.28;;;21.90;91.20;;;;;;5008839;28;20037;-65
2023/08/14 05:20:50;;;;;;;5.32;4.93;;;21.90;91.20;;;;;;5013929;28;20391;-65
2023/08/14 05:23:16;;;;;;;6.28;5.22;;;21.90;91.20;;;;;;5011534;28;20660;-64
2023/08/14 05:25:43;;;;;;;5.40;4.90;;;21.90;91.20;;;;;;5010679;28;20034;-64
2023/08/14 05:28:09;;;;;;;5.63;5.13;;;22.00;91.20;;;;;;5012878;28;20524;-65
2023/08/14 05:30:34;;;;;;;6.25;4.90;;;22.00;91.20;;;;;;5009619;28;20034;-64
2023/08/14 05:33:00;;;;;;;5.93;5.30;;;22.00;91.20;;;;;;5008164;28;20367;-64
2023/08/14 05:35:26;;;;;;;5.20;4.70;;;22.00;91.10;;;;;;5009834;28;20041;-64
2023/08/14 05:37:55;;;;;;;5.55;5.05;;;22.00;91.10;;;;;;5008335;28;20121;-63
2023/08/14 05:40:20;;;;;;;5.57;4.53;;;22.00;91.00;;;;;;5004279;28;20525;-64
2023/08/14 05:43:02;;;;;;;5.85;4.88;;;21.90;91.00;;;;;;5010156;28;20042;-65
2023/08/14 05:45:28;;;;;;;6.78;4.93;;;21.90;91.20;;;;;;5010962;28;20033;-64
2023/08/14 05:47:53;;;;;;;5.50;5.03;;;21.90;91.60;;;;;;4991325;28;20034;-64
2023/08/14 05:50:21;;;;;;;6.50;4.80;;;21.90;91.20;;;;;;5011118;28;20061;-64
2023/08/14 05:52:46;;;;;;;5.35;4.75;;;21.90;91.30;;;;;;5008481;28;20037;-64
2023/08/14 05:55:12;;;;;;;5.10;4.70;;;21.90;91.40;;;;;;5007988;28;20044;-64
2023/08/14 05:57:38;;;;;;;5.28;4.78;;;21.90;91.50;;;;;;5007251;28;20038;-63
2023/08/14 06:00:04;;;;;;;5.45;4.95;;;21.90;91.60;;;;;;5007145;28;20038;-63
2023/08/14 06:02:30;;;;;;;6.82;4.35;;;22.00;91.60;;;;;;5007459;28;20125;-64
2023/08/14 06:04:56;;;;;;;5.80;4.70;;;22.00;91.60;;;;;;5009402;28;20475;-64
2023/08/14 06:07:21;;;;;;;6.22;4.95;;;22.10;92.00;;;;;;5011238;28;20038;-64
2023/08/14 06:09:47;;;;;;;7.18;4.53;;;22.10;91.70;;;;;;5011766;28;20037;-64
2023/08/14 06:12:12;;;;;;;6.57;4.97;;;22.20;91.70;;;;;;5006663;28;20045;-63
2023/08/14 06:14:38;;;;;;;6.32;4.78;;;22.20;91.70;;;;;;5009725;28;20030;-64
2023/08/14 06:17:03;;;;;;;5.38;4.97;;;22.30;91.70;;;;;;5013531;28;20034;-64
2023/08/14 06:19:29;;;;;;;7.18;4.93;;;22.40;91.70;;;;;;5016095;28;20131;-63
2023/08/14 06:21:54;;;;;;;5.10;4.60;;;22.40;91.60;;;;;;5014771;28;20417;-63
2023/08/14 06:24:21;;;;;;;5.55;5.07;;;22.50;91.60;;;;;;5010619;28;20038;-63
2023/08/14 06:26:47;;;;;;;5.82;5.20;;;22.60;91.60;;;;;;5012205;28;20064;-64
2023/08/14 06:29:12;;;;;;;6.40;5.32;;;22.70;91.50;;;;;;5013606;28;20047;-63
2023/08/14 06:31:38;;;;;;;6.07;5.10;;;22.70;91.40;;;;;;5008577;28;20099;-63
2023/08/14 06:34:04;;;;;;;6.97;5.22;;;22.80;91.40;;;;;;5013211;28;20583;-65
2023/08/14 06:36:29;;;;;;;6.78;5.50;;;22.80;91.40;;;;;;5011137;28;20030;-64
2023/08/14 06:38:55;;;;;;;5.82;5.32;;;22.80;91.40;;;;;;5011966;28;20498;-64
2023/08/14 06:41:20;;;;;;;6.70;5.60;;;22.90;91.30;;;;;;5012978;28;20410;-64
2023/08/14 06:43:46;;;;;;;7.03;5.18;;;22.90;91.30;;;;;;5015369;28;20046;-64
2023/08/14 06:46:11;;;;;;;6.80;6.00;;;23.00;91.30;;;;;;5012881;28;20034;-63
2023/08/14 06:48:37;;;;;;;6.20;5.60;;;23.00;91.20;;;;;;5009529;28;20691;-64
2023/08/14 06:51:03;;;;;;;6.40;5.80;;;23.00;91.10;;;;;;5008970;28;20045;-64
2023/08/14 06:53:28;;;;;;;5.85;5.35;;;23.00;91.00;;;;;;5013981;28;20672;-63
2023/08/14 06:55:55;;;;;;;6.57;5.68;;;23.00;91.00;;;;;;5015049;28;20041;-63
2023/08/14 06:58:21;;;;;;;5.95;5.30;;;23.10;91.00;;;;;;5010338;28;20030;-64
2023/08/14 07:00:48;;;;;;;7.85;5.60;;;23.10;91.20;;;;;;5008263;28;21658;-64
2023/08/14 07:03:13;;;;;;;6.20;5.55;;;23.20;91.10;;;;;;5005790;28;20038;-64
2023/08/14 07:05:39;;;;;;;6.45;5.55;;;23.20;91.00;;;;;;4994785;28;20041;-63
2023/08/14 07:08:05;;;;;;;6.13;5.53;;;23.30;91.00;;;;;;4990417;28;20156;-64
2023/08/14 07:10:30;;;;;;;6.65;5.60;;;23.30;91.00;;;;;;4988802;28;20057;-63
2023/08/14 07:12:56;;;;;;;9.05;5.57;;;23.40;91.00;;;;;;4996250;28;20095;-63
2023/08/14 07:15:21;;;;;;;5.78;5.25;;;23.40;91.10;;;;;;4992737;28;20490;-63
2023/08/14 07:17:47;;;;;;;6.15;4.95;;;23.40;91.00;;;;;;4992459;28;21410;-64
2023/08/14 07:20:13;;;;;;;5.95;5.05;;;23.50;91.00;;;;;;4988052;28;20042;-64
2023/08/14 07:22:38;;;;;;;6.20;5.60;;;23.50;90.80;;;;;;4995782;28;20034;-63
2023/08/14 07:25:05;;;;;;;6.15;5.18;;;23.60;90.80;;;;;;4989399;28;20050;-64
2023/08/14 07:27:31;;;;;;;6.50;5.00;;;23.60;90.80;;;;;;4986949;28;20160;-64
2023/08/14 07:29:57;;;;;;;5.20;4.75;;;23.70;90.70;;;;;;4989699;28;20267;-64
2023/08/14 07:32:22;;;;;;;4.68;4.28;;;23.70;90.60;;;;;;4988562;28;20046;-64
2023/08/14 07:34:48;;;;;;;5.40;4.78;;;23.80;90.90;;;;;;4986930;28;20355;-64
2023/08/14 07:37:14;;;;;;;5.30;4.20;;;23.80;90.40;;;;;;4989651;28;20190;-64
2023/08/14 07:39:39;;;;;;;4.55;4.15;;;23.80;90.60;;;;;;4995574;28;20049;-63
2023/08/14 07:42:05;;;;;;;5.18;4.68;;;23.90;90.50;;;;;;4994215;28;21343;-63
2023/08/14 07:44:31;;;;;;;4.22;3.83;;;24.00;90.60;;;;;;4989877;28;20042;-63
2023/08/14 07:46:56;;;;;;;5.55;3.97;;;24.00;90.30;;;;;;4989998;28;20183;-63
2023/08/14 07:49:22;;;;;;;4.63;4.22;;;24.10;90.30;;;;;;4990586;28;20038;-64
2023/08/14 07:51:47;;;;;;;4.78;4.30;;;24.10;90.30;;;;;;4995270;28;20046;-64
2023/08/14 07:54:13;;;;;;;5.07;4.57;;;24.20;90.10;;;;;;4996098;28;20034;-64
2023/08/14 07:56:38;;;;;;;4.72;4.30;;;24.30;90.00;;;;;;4993100;28;20042;-63
2023/08/14 07:59:05;;;;;;;4.60;3.95;;;24.40;90.00;;;;;;4992558;28;20417;-63
2023/08/14 08:01:31;;;;;;;4.15;3.75;;;24.40;89.80;;;;;;4996616;28;20041;-64
2023/08/14 08:03:57;;;;;;;4.10;3.72;;;24.50;89.50;;;;;;5011857;28;20125;-64
2023/08/14 08:06:23;;;;;;;4.45;4.03;;;24.60;89.30;;;;;;5005825;28;20117;-63
2023/08/14 08:08:48;;;;;;;4.03;3.70;;;24.70;89.20;;;;;;5006528;28;20041;-63
2023/08/14 08:11:14;;;;;;;6.57;4.25;;;24.70;89.00;;;;;;4994866;28;20030;-63
2023/08/14 08:13:40;;;;;;;7.22;4.00;;;24.70;89.30;;;;;;4998000;28;20034;-63
2023/08/14 08:16:05;;;;;;;4.40;4.00;;;24.90;89.40;;;;;;5002730;28;20541;-64
2023/08/14 08:18:31;;;;;;;4.13;3.72;;;24.90;89.90;;;;;;5007300;28;20042;-64
2023/08/14 08:20:56;;;;;;;4.40;3.40;;;25.00;89.00;;;;;;5003602;28;20485;-63
2023/08/14 08:23:22;;;;;;;3.75;3.45;;;25.10;88.80;;;;;;5007205;28;20033;-63
2023/08/14 08:25:48;;;;;;;4.60;3.60;;;25.20;88.70;;;;;;5007078;28;20029;-63
2023/08/14 08:28:14;;;;;;;3.88;3.47;;;25.30;88.40;;;;;;5006948;28;20963;-64
2023/08/14 08:30:39;;;;;;;3.67;3.38;;;25.40;88.10;;;;;;5005255;28;20027;-64
2023/08/14 08:33:06;;;;;;;6.07;3.30;;;25.50;87.80;;;;;;5006306;28;20588;-63
2023/08/14 08:35:31;;;;;;;3.50;3.20;;;25.50;87.70;;;;;;5004437;28;20128;-64
2023/08/14 08:37:57;;;;;;;4.47;2.90;;;25.60;87.50;;;;;;5010681;28;20468;-64
2023/08/14 08:40:23;;;;;;;3.05;2.75;;;25.70;87.80;;;;;;5008411;28;20045;-64
2023/08/14 08:42:49;;;;;;;2.97;2.67;;;25.70;87.00;;;;;;5006956;28;20045;-64
2023/08/14 08:45:18;;;;;;;2.75;2.55;;;25.90;86.70;;;;;;5008708;28;20037;-64
2023/08/14 08:47:48;;;;;;;3.63;2.30;;;25.90;85.90;;;;;;5003672;28;20445;-64
2023/08/14 08:50:14;;;;;;;3.25;2.58;;;26.00;85.30;;;;;;5005166;28;20041;-64
2023/08/14 08:52:39;;;;;;;3.13;2.60;;;26.10;85.30;;;;;;5009630;28;22115;-63
2023/08/14 08:55:07;;;;;;;3.17;2.40;;;26.20;85.30;;;;;;5011811;28;20034;-63
2023/08/14 08:57:34;;;;;;;2.47;2.38;;;26.30;84.20;;;;;;5012188;28;20068;-64
2023/08/14 09:00:01;;;;;;;2.70;2.50;;;26.30;83.50;;;;;;5013361;28;20052;-64
2023/08/14 09:02:26;;;;;;;2.65;2.45;;;26.40;83.10;;;;;;5010694;28;20397;-64
2023/08/14 09:04:52;;;;;;;5.05;2.30;;;26.50;82.40;;;;;;5012867;28;20041;-64
2023/08/14 09:07:18;;;;;;;2.83;2.40;;;26.60;82.20;;;;;;5013796;28;20184;-64
2023/08/14 09:09:44;;;;;;;3.08;2.70;;;26.60;82.30;;;;;;5013745;28;20050;-64
2023/08/14 09:12:09;;;;;;;3.13;2.83;;;26.80;82.00;;;;;;4995956;28;20033;-63
2023/08/14 09:14:41;;;;;;;2.90;2.70;;;26.80;81.90;;;;;;4992043;28;20030;-64
2023/08/14 09:17:06;;;;;;;4.47;2.33;;;26.90;81.80;;;;;;4994626;28;20038;-64
2023/08/14 09:19:32;;;;;;;2.75;2.47;;;27.00;82.00;;;;;;5001475;28;20418;-64
2023/08/14 09:21:57;;;;;;;3.08;2.28;;;27.10;81.70;;;;;;5006821;28;20038;-64
2023/08/14 09:24:23;;;;;;;2.65;2.45;;;27.20;81.10;;;;;;5008753;28;20121;-64
2023/08/14 09:26:49;;;;;;;2.88;2.65;;;27.30;80.40;;;;;;5008129;28;20033;-65
2023/08/14 09:29:15;;;;;;;3.05;2.35;;;27.40;80.20;;;;;;5000223;28;20524;-64
2023/08/14 09:31:45;;;;;;;3.50;2.70;;;27.50;79.90;;;;;;5006481;28;20042;-63
2023/08/14 09:34:20;;;;;;;2.55;2.35;;;27.60;79.30;;;;;;5004173;28;20037;-64
2023/08/14 09:36:46;;;;;;;4.00;2.60;;;27.70;77.50;;;;;;4993308;28;20042;-63
2023/08/14 09:39:12;;;;;;;4.03;2.60;;;27.70;78.60;;;;;;5003586;28;20101;-64
2023/08/14 09:41:38;;;;;;;2.50;2.30;;;27.80;78.40;;;;;;4999485;28;20664;-63
2023/08/14 09:44:04;;;;;;;4.55;2.70;;;27.80;77.80;;;;;;5009895;28;20072;-64
2023/08/14 09:46:29;;;;;;;3.00;2.30;;;27.90;77.50;;;;;;5006936;28;20036;-64
2023/08/14 09:48:55;;;;;;;3.30;2.60;;;28.00;77.20;;;;;;5013855;28;20038;-64
2023/08/14 09:51:21;;;;;;;2.50;2.30;;;28.00;76.90;;;;;;5003203;28;20047;-64
2023/08/14 09:53:49;;;;;;;2.95;2.28;;;28.10;76.90;;;;;;5002522;28;20513;-63
2023/08/14 09:56:17;;;;;;;5.07;2.63;;;28.10;76.50;;;;;;4998518;28;20390;-63
2023/08/14 09:58:44;;;;;;;3.30;2.70;;;28.20;76.00;;;;;;5012001;28;20034;-63
2023/08/14 10:01:12;;;;;;;2.65;2.33;;;28.30;76.00;;;;;;5003740;28;20040;-63
2023/08/14 10:03:40;;;;;;;2.83;2.63;;;28.30;75.40;;;;;;5003025;28;20117;-64
2023/08/14 10:06:09;;;;;;;2.95;2.70;;;28.40;75.60;;;;;;5009534;28;20123;-64
2023/08/14 10:08:36;;;;;;;3.13;2.40;;;28.40;75.10;;;;;;4996773;28;20030;-64
2023/08/14 10:11:07;;;;;;;2.88;2.47;;;28.50;75.00;;;;;;4997080;28;20227;-64
2023/08/14 10:13:37;;;;;;;4.18;2.35;;;28.60;74.50;;;;;;5017035;28;20026;-64
2023/08/14 10:16:08;;;;;;;2.58;2.35;;;28.60;74.20;;;;;;5014078;28;20453;-65
2023/08/14 10:18:38;;;;;;;3.50;2.40;;;28.70;73.60;;;;;;5013065;28;20029;-64
2023/08/14 10:21:07;;;;;;;2.33;2.10;;;28.80;74.10;;;;;;5015412;28;20044;-64
2023/08/14 10:23:34;;;;;;;4.30;2.17;;;28.80;72.60;;;;;;5014545;28;20595;-64
2023/08/14 10:26:00;;;;;;;3.65;2.58;;;28.90;72.40;;;;;;5010553;28;20038;-64
2023/08/14 10:28:26;;;;;;;3.25;2.55;;;28.90;72.80;;;;;;5012960;28;20036;-64
2023/08/14 10:30:52;;;;;;;2.40;2.20;;;29.00;72.20;;;;;;5012064;28;20113;-64
2023/08/14 10:33:19;;;;;;;4.68;2.45;;;29.00;72.20;;;;;;5014128;28;20397;-64
2023/08/14 10:35:55;;;;;;;2.60;2.40;;;29.10;71.40;;;;;;5015463;28;20418;-64
2023/08/14 10:38:40;;;;;;;2.42;2.22;;;29.20;71.20;;;;;;5015499;28;20033;-64
2023/08/14 10:41:08;;;;;;;2.53;2.30;;;29.20;71.30;;;;;;5013149;28;20033;-63
2023/08/14 10:43:33;;;;;;;2.45;2.03;;;29.30;71.00;;;;;;5013031;28;20091;-64
2023/08/14 10:46:06;;;;;;;2.45;2.20;;;29.40;70.70;;;;;;5014779;28;20030;-64
2023/08/14 10:48:38;;;;;;;2.25;2.05;;;29.40;70.50;;;;;;5004524;28;20044;-63
2023/08/14 10:51:08;;;;;;;3.45;2.13;;;29.50;70.00;;;;;;5012937;28;20032;-63
2023/08/14 10:53:34;;;;;;;2.97;2.10;;;29.50;69.90;;;;;;5014081;28;20678;-63
2023/08/14 10:56:00;;;;;;;3.53;2.03;;;29.60;69.70;;;;;;5015406;28;20042;-64
2023/08/14 10:58:28;;;;;;;4.03;2.25;;;29.60;69.60;;;;;;5011045;28;20152;-64
2023/08/14 11:00:54;;;;;;;3.72;2.25;;;29.60;69.70;;;;;;5014901;28;20100;-64
2023/08/14 11:03:19;;;;;;;4.20;2.20;;;29.60;68.70;;;;;;5015756;28;20037;-63
2023/08/14 11:05:45;;;;;;;2.58;2.03;;;29.70;68.60;;;;;;5015737;28;20025;-65
2023/08/14 11:08:12;;;;;;;2.17;1.90;;;29.70;68.70;;;;;;5014767;28;20038;-64
2023/08/14 11:10:40;;;;;;;1.83;1.73;;;29.70;68.50;;;;;;5012244;28;20034;-64
2023/08/14 11:13:12;;;;;;;2.33;2.13;;;29.80;66.90;;;;;;5015672;28;20539;-64
2023/08/14 11:15:42;;;;;;;2.22;2.00;;;29.80;66.50;;;;;;5014923;28;20137;-64
2023/08/14 11:18:09;;;;;;;2.30;2.10;;;29.80;65.80;;;;;;5014275;28;20058;-64
2023/08/14 11:20:42;;;;;;;2.75;2.22;;;29.80;66.70;;;;;;5012272;28;20448;-65
2023/08/14 11:23:08;;;;;;;2.42;2.08;;;29.80;67.10;;;;;;5006648;28;20056;-64
2023/08/14 11:25:34;;;;;;;3.03;2.40;;;29.90;67.30;;;;;;5016173;28;20568;-64
2023/08/14 11:28:00;;;;;;;3.20;2.22;;;29.90;66.80;;;;;;5011427;28;20401;-64
2023/08/14 11:30:30;;;;;;;2.58;2.15;;;29.90;67.10;;;;;;5012572;28;20052;-64
2023/08/14 11:32:56;;;;;;;2.33;2.03;;;29.90;67.00;;;;;;4998103;28;20037;-65
2023/08/14 11:35:25;;;;;;;2.65;2.40;;;30.00;66.80;;;;;;5014566;28;20040;-63
2023/08/14 11:37:51;;;;;;;3.25;2.47;;;30.00;66.70;;;;;;5012801;28;20115;-64
2023/08/14 11:40:17;;;;;;;3.25;2.05;;;30.10;67.40;;;;;;5014873;28;20508;-64
2023/08/14 11:42:43;;;;;;;2.22;2.13;;;30.10;66.90;;;;;;5010023;28;20045;-63
2023/08/14 11:45:10;;;;;;;2.47;2.20;;;30.10;66.50;;;;;;5007634;28;20172;-63
2023/08/14 11:47:37;;;;;;;2.20;1.80;;;30.20;66.20;;;;;;5014525;28;20489;-64
2023/08/14 11:50:04;;;;;;;2.42;2.00;;;30.20;65.40;;;;;;5011264;28;20042;-64
2023/08/14 11:52:30;;;;;;;3.50;2.25;;;30.30;65.30;;;;;;5005423;28;20137;-64
2023/08/14 11:54:57;;;;;;;2.35;2.15;;;30.30;65.50;;;;;;5014525;28;20037;-63
2023/08/14 11:57:25;;;;;;;1.90;1.80;;;30.30;65.30;;;;;;5016823;28;20038;-63
2023/08/14 11:59:52;;;;;;;2.13;1.95;;;30.40;64.60;;;;;;5016221;28;20034;-64
2023/08/14 12:02:19;;;;;;;2.83;1.80;;;30.40;64.40;;;;;;5011140;28;20145;-64
2023/08/14 12:04:45;;;;;;;2.20;1.98;;;30.40;64.00;;;;;;5012455;28;20037;-63
2023/08/14 12:07:11;;;;;;;1.65;1.55;;;30.40;63.70;;;;;;5012824;28;20034;-63
2023/08/14 12:09:38;;;;;;;2.15;1.95;;;30.50;63.60;;;;;;5005090;28;20080;-64
2023/08/14 12:12:04;;;;;;;2.35;2.15;;;30.50;63.40;;;;;;5004568;28;20080;-63
2023/08/14 12:14:59;;;;;;;2.38;2.17;;;30.50;62.70;;;;;;5008711;28;20708;-63
2023/08/14 12:17:25;;;;;;;2.03;1.92;;;30.60;63.70;;;;;;4996604;28;20058;-64
2023/08/14 12:19:53;;;;;;;2.30;1.80;;;30.60;63.80;;;;;;5013368;28;20057;-63
2023/08/14 12:22:23;;;;;;;2.50;2.05;;;30.60;64.60;;;;;;5016256;28;20114;-64
2023/08/14 12:24:49;;;;;;;2.05;1.90;;;30.70;62.60;;;;;;5012057;28;20044;-66
2023/08/14 12:27:16;;;;;;;1.92;1.83;;;30.70;63.30;;;;;;5011843;28;20029;-64
2023/08/14 12:29:42;;;;;;;2.10;1.90;;;30.80;62.30;;;;;;5013023;28;20034;-64
2023/08/14 12:32:08;;;;;;;2.67;1.83;;;30.80;62.10;;;;;;5011724;28;20042;-63
2023/08/14 12:34:34;;;;;;;3.00;1.95;;;30.80;62.40;;;;;;5012959;28;20455;-63
2023/08/14 12:36:59;;;;;;;1.92;1.83;;;30.90;62.70;;;;;;5013964;28;20116;-64
2023/08/14 12:39:25;;;;;;;1.80;1.70;;;30.90;62.30;;;;;;5012520;28;20042;-64
2023/08/14 12:41:55;;;;;;;1.92;1.83;;;30.90;61.70;;;;;;5014766;28;20049;-63